sensor_id;sensor_type;location;lat;lon;timestamp;pressure;altitude;pressure_sealevel;temperature;humidity
2711;BME280;20721;47.402;8.550;2023-02-03T00:00:55;97560;;;6.59;54.65
2711;BME280;20721;47.402;8.550;2023-02-03T00:01:55;97560;;;6.62;54.71
2711;BME280;20721;47.402;8.550;2023-02-03T00:02:56;97561;;;6.70;54.56
2711;BME280;20721;47.402;8.550;2023-02-03T00:03:55;97556;;;6.79;54.32
2711;BME280;20721;47.402;8.550;2023-02-03T00:04:55;97553;;;6.89;54.09
2711;BME280;20721;47.402;8.550;2023-02-03T00:05:55;97553;;;6.99;53.78
2711;BME280;20721;47.402;8.550;2023-02-03T00:06:55;97546;;;7.03;53.51
2711;BME280;20721;47.402;8.550;2023-02-03T00:07:55;97550;;;7.09;53.37
2711;BME280;20721;47.402;8.550;2023-02-03T00:08:55;97547;;;7.16;53.24
2711;BME280;20721;47.402;8.550;2023-02-03T00:09:55;97547;;;7.18;53.09
2711;BME280;20721;47.402;8.550;2023-02-03T00:10:55;97551;;;7.22;52.95
2711;BME280;20721;47.402;8.550;2023-02-03T00:11:55;97548;;;7.20;52.84
2711;BME280;20721;47.402;8.550;2023-02-03T00:12:56;97550;;;7.23;52.83
2711;BME280;20721;47.402;8.550;2023-02-03T00:13:55;97547;;;7.25;52.72
2711;BME280;20721;47.402;8.550;2023-02-03T00:14:55;97549;;;7.30;52.72
2711;BME280;20721;47.402;8.550;2023-02-03T00:15:55;97546;;;7.29;52.62
2711;BME280;20721;47.402;8.550;2023-02-03T00:16:55;97549;;;7.33;52.59
2711;BME280;20721;47.402;8.550;2023-02-03T00:17:55;97546;;;7.37;52.52
2711;BME280;20721;47.402;8.550;2023-02-03T00:18:55;97549;;;7.35;52.40
2711;BME280;20721;47.402;8.550;2023-02-03T00:19:55;97550;;;7.30;52.49
2711;BME280;20721;47.402;8.550;2023-02-03T00:20:55;97545;;;7.26;52.53
2711;BME280;20721;47.402;8.550;2023-02-03T00:23:02;97544;;;7.25;52.56
2711;BME280;20721;47.402;8.550;2023-02-03T00:23:55;97546;;;7.27;52.52
2711;BME280;20721;47.402;8.550;2023-02-03T00:25:56;97543;;;7.32;52.38
2711;BME280;20721;47.402;8.550;2023-02-03T00:26:55;97546;;;7.28;52.43
2711;BME280;20721;47.402;8.550;2023-02-03T00:27:56;97544;;;7.23;52.44
2711;BME280;20721;47.402;8.550;2023-02-03T00:28:57;97538;;;7.16;52.49
2711;BME280;20721;47.402;8.550;2023-02-03T00:29:55;97541;;;7.11;52.64
2711;BME280;20721;47.402;8.550;2023-02-03T00:30:55;97543;;;6.99;52.75
2711;BME280;20721;47.402;8.550;2023-02-03T00:31:57;97541;;;6.87;53.07
2711;BME280;20721;47.402;8.550;2023-02-03T00:33:56;97540;;;6.80;53.29
2711;BME280;20721;47.402;8.550;2023-02-03T00:35:55;97541;;;6.83;53.37
2711;BME280;20721;47.402;8.550;2023-02-03T00:36:56;97538;;;6.87;53.28
2711;BME280;20721;47.402;8.550;2023-02-03T00:37:56;97539;;;6.88;53.20
2711;BME280;20721;47.402;8.550;2023-02-03T00:38:55;97539;;;6.87;53.29
2711;BME280;20721;47.402;8.550;2023-02-03T00:39:55;97540;;;6.91;53.17
2711;BME280;20721;47.402;8.550;2023-02-03T00:40:55;97544;;;6.95;53.09
2711;BME280;20721;47.402;8.550;2023-02-03T00:41:56;97545;;;7.01;52.96
2711;BME280;20721;47.402;8.550;2023-02-03T00:42:56;97548;;;7.03;52.87
2711;BME280;20721;47.402;8.550;2023-02-03T00:43:56;97552;;;7.04;52.85
2711;BME280;20721;47.402;8.550;2023-02-03T00:44:55;97549;;;7.07;52.80
2711;BME280;20721;47.402;8.550;2023-02-03T00:45:56;97553;;;7.09;52.63
2711;BME280;20721;47.402;8.550;2023-02-03T00:46:55;97557;;;7.10;52.61
2711;BME280;20721;47.402;8.550;2023-02-03T00:47:55;97561;;;7.13;52.56
2711;BME280;20721;47.402;8.550;2023-02-03T00:48:55;97564;;;7.15;52.53
2711;BME280;20721;47.402;8.550;2023-02-03T00:49:56;97570;;;7.16;52.46
2711;BME280;20721;47.402;8.550;2023-02-03T00:50:56;97573;;;7.14;52.46
2711;BME280;20721;47.402;8.550;2023-02-03T00:51:56;97573;;;7.15;52.40
2711;BME280;20721;47.402;8.550;2023-02-03T00:52:55;97575;;;7.13;52.43
2711;BME280;20721;47.402;8.550;2023-02-03T00:54:55;97576;;;7.12;52.44
2711;BME280;20721;47.402;8.550;2023-02-03T00:55:56;97578;;;7.11;52.43
2711;BME280;20721;47.402;8.550;2023-02-03T00:56:55;97575;;;7.09;52.50
2711;BME280;20721;47.402;8.550;2023-02-03T00:57:55;97578;;;7.05;52.57
2711;BME280;20721;47.402;8.550;2023-02-03T00:58:56;97583;;;7.04;52.65
2711;BME280;20721;47.402;8.550;2023-02-03T00:59:57;97583;;;7.03;52.64
2711;BME280;20721;47.402;8.550;2023-02-03T01:00:56;97578;;;7.05;52.59
2711;BME280;20721;47.402;8.550;2023-02-03T01:01:56;97581;;;7.04;52.59
2711;BME280;20721;47.402;8.550;2023-02-03T01:02:55;97580;;;7.03;52.62
2711;BME280;20721;47.402;8.550;2023-02-03T01:03:56;97579;;;6.96;52.71
2711;BME280;20721;47.402;8.550;2023-02-03T01:04:56;97574;;;6.91;52.82
2711;BME280;20721;47.402;8.550;2023-02-03T01:05:56;97572;;;6.85;53.01
2711;BME280;20721;47.402;8.550;2023-02-03T01:07:56;97574;;;6.83;53.16
2711;BME280;20721;47.402;8.550;2023-02-03T01:08:56;97575;;;6.79;53.18
2711;BME280;20721;47.402;8.550;2023-02-03T01:09:56;97577;;;6.76;53.28
2711;BME280;20721;47.402;8.550;2023-02-03T01:10:56;97577;;;6.71;53.39
2711;BME280;20721;47.402;8.550;2023-02-03T01:12:56;97586;;;6.74;53.43
2711;BME280;20721;47.402;8.550;2023-02-03T01:13:56;97589;;;6.75;53.43
2711;BME280;20721;47.402;8.550;2023-02-03T01:14:56;97591;;;6.77;53.41
2711;BME280;20721;47.402;8.550;2023-02-03T01:15:55;97600;;;6.76;53.46
2711;BME280;20721;47.402;8.550;2023-02-03T01:16:56;97601;;;6.78;53.40
2711;BME280;20721;47.402;8.550;2023-02-03T01:17:56;97599;;;6.79;53.37
2711;BME280;20721;47.402;8.550;2023-02-03T01:18:56;97605;;;6.80;53.36
2711;BME280;20721;47.402;8.550;2023-02-03T01:19:56;97603;;;6.83;53.40
2711;BME280;20721;47.402;8.550;2023-02-03T01:20:56;97603;;;6.89;53.27
2711;BME280;20721;47.402;8.550;2023-02-03T01:21:56;97604;;;6.95;53.22
2711;BME280;20721;47.402;8.550;2023-02-03T01:22:56;97606;;;7.00;53.04
2711;BME280;20721;47.402;8.550;2023-02-03T01:23:56;97611;;;7.04;52.92
2711;BME280;20721;47.402;8.550;2023-02-03T01:24:56;97611;;;7.06;52.83
2711;BME280;20721;47.402;8.550;2023-02-03T01:25:56;97613;;;7.04;52.83
2711;BME280;20721;47.402;8.550;2023-02-03T01:27:56;97613;;;7.06;52.82
2711;BME280;20721;47.402;8.550;2023-02-03T01:28:57;97617;;;7.09;52.81
2711;BME280;20721;47.402;8.550;2023-02-03T01:29:56;97615;;;7.10;52.73
2711;BME280;20721;47.402;8.550;2023-02-03T01:30:56;97617;;;7.13;52.70
2711;BME280;20721;47.402;8.550;2023-02-03T01:31:56;97617;;;7.15;52.63
2711;BME280;20721;47.402;8.550;2023-02-03T01:33:56;97609;;;7.08;52.68
2711;BME280;20721;47.402;8.550;2023-02-03T01:34:56;97612;;;7.07;52.75
2711;BME280;20721;47.402;8.550;2023-02-03T01:35:59;97610;;;7.05;52.83
2711;BME280;20721;47.402;8.550;2023-02-03T01:36:56;97609;;;7.07;52.85
2711;BME280;20721;47.402;8.550;2023-02-03T01:37:56;97611;;;7.05;52.84
2711;BME280;20721;47.402;8.550;2023-02-03T01:38:56;97611;;;7.03;52.78
2711;BME280;20721;47.402;8.550;2023-02-03T01:39:56;97611;;;7.05;52.77
2711;BME280;20721;47.402;8.550;2023-02-03T01:41:56;97611;;;7.06;52.81
2711;BME280;20721;47.402;8.550;2023-02-03T01:43:56;97615;;;7.05;52.80
2711;BME280;20721;47.402;8.550;2023-02-03T01:44:57;97617;;;7.03;52.84
2711;BME280;20721;47.402;8.550;2023-02-03T01:45:57;97623;;;7.01;52.78
2711;BME280;20721;47.402;8.550;2023-02-03T01:46:56;97624;;;6.99;52.96
2711;BME280;20721;47.402;8.550;2023-02-03T01:47:56;97624;;;7.02;52.86
2711;BME280;20721;47.402;8.550;2023-02-03T01:49:05;97624;;;6.99;52.80
2711;BME280;20721;47.402;8.550;2023-02-03T01:49:58;97623;;;7.01;52.86
2711;BME280;20721;47.402;8.550;2023-02-03T01:50:56;97622;;;7.05;52.83
2711;BME280;20721;47.402;8.550;2023-02-03T01:51:56;97623;;;7.11;52.75
2711;BME280;20721;47.402;8.550;2023-02-03T01:52:57;97624;;;7.15;52.71
2711;BME280;20721;47.402;8.550;2023-02-03T01:53:56;97624;;;7.22;52.69
2711;BME280;20721;47.402;8.550;2023-02-03T01:54:56;97623;;;7.27;52.42
2711;BME280;20721;47.402;8.550;2023-02-03T01:55:56;97622;;;7.30;52.38
2711;BME280;20721;47.402;8.550;2023-02-03T01:56:58;97620;;;7.34;52.29
2711;BME280;20721;47.402;8.550;2023-02-03T01:57:58;97620;;;7.36;52.17
2711;BME280;20721;47.402;8.550;2023-02-03T01:58:57;97618;;;7.38;52.14
2711;BME280;20721;47.402;8.550;2023-02-03T01:59:56;97616;;;7.40;52.09
2711;BME280;20721;47.402;8.550;2023-02-03T02:00:57;97619;;;7.41;52.12
2711;BME280;20721;47.402;8.550;2023-02-03T02:01:56;97615;;;7.42;52.00
2711;BME280;20721;47.402;8.550;2023-02-03T02:02:56;97608;;;7.41;52.01
2711;BME280;20721;47.402;8.550;2023-02-03T02:06:04;97594;;;7.43;51.98
2711;BME280;20721;47.402;8.550;2023-02-03T02:06:56;97596;;;7.41;51.91
2711;BME280;20721;47.402;8.550;2023-02-03T02:07:56;97595;;;7.39;51.94
2711;BME280;20721;47.402;8.550;2023-02-03T02:08:57;97594;;;7.41;52.00
2711;BME280;20721;47.402;8.550;2023-02-03T02:09:56;97599;;;7.43;52.00
2711;BME280;20721;47.402;8.550;2023-02-03T02:10:56;97608;;;7.38;51.93
2711;BME280;20721;47.402;8.550;2023-02-03T02:11:56;97616;;;7.37;52.05
2711;BME280;20721;47.402;8.550;2023-02-03T02:12:56;97618;;;7.36;52.05
2711;BME280;20721;47.402;8.550;2023-02-03T02:13:57;97622;;;7.37;52.02
2711;BME280;20721;47.402;8.550;2023-02-03T02:14:56;97626;;;7.34;52.00
2711;BME280;20721;47.402;8.550;2023-02-03T02:15:59;97627;;;7.27;52.02
2711;BME280;20721;47.402;8.550;2023-02-03T02:16:58;97630;;;7.26;52.06
2711;BME280;20721;47.402;8.550;2023-02-03T02:18:59;97626;;;7.31;51.96
2711;BME280;20721;47.402;8.550;2023-02-03T02:21:04;97628;;;7.22;52.10
2711;BME280;20721;47.402;8.550;2023-02-03T02:25:09;97631;;;7.27;51.99
2711;BME280;20721;47.402;8.550;2023-02-03T02:26:59;97625;;;7.20;52.02
2711;BME280;20721;47.402;8.550;2023-02-03T02:32:30;97620;;;6.91;52.49
2711;BME280;20721;47.402;8.550;2023-02-03T02:35:57;97607;;;6.92;52.71
2711;BME280;20721;47.402;8.550;2023-02-03T02:38:04;97600;;;6.94;52.52
2711;BME280;20721;47.402;8.550;2023-02-03T02:39:12;97597;;;6.91;52.64
2711;BME280;20721;47.402;8.550;2023-02-03T02:42:00;97582;;;6.87;52.33
2711;BME280;20721;47.402;8.550;2023-02-03T02:44:00;97579;;;6.89;52.56
2711;BME280;20721;47.402;8.550;2023-02-03T02:45:04;97582;;;6.87;52.59
2711;BME280;20721;47.402;8.550;2023-02-03T02:45:58;97585;;;6.81;52.60
2711;BME280;20721;47.402;8.550;2023-02-03T02:46:57;97584;;;6.83;52.66
2711;BME280;20721;47.402;8.550;2023-02-03T02:47:58;97581;;;6.85;52.61
2711;BME280;20721;47.402;8.550;2023-02-03T02:48:57;97582;;;6.90;52.55
2711;BME280;20721;47.402;8.550;2023-02-03T02:49:59;97569;;;6.93;52.34
2711;BME280;20721;47.402;8.550;2023-02-03T02:50:56;97568;;;6.91;52.19
2711;BME280;20721;47.402;8.550;2023-02-03T02:51:56;97563;;;6.92;52.23
2711;BME280;20721;47.402;8.550;2023-02-03T02:52:56;97562;;;6.79;52.45
2711;BME280;20721;47.402;8.550;2023-02-03T02:53:58;97558;;;6.75;52.51
2711;BME280;20721;47.402;8.550;2023-02-03T02:54:57;97558;;;6.70;52.59
2711;BME280;20721;47.402;8.550;2023-02-03T02:55:56;97555;;;6.75;52.56
2711;BME280;20721;47.402;8.550;2023-02-03T02:56:57;97556;;;6.79;52.42
2711;BME280;20721;47.402;8.550;2023-02-03T02:57:57;97554;;;6.78;52.36
2711;BME280;20721;47.402;8.550;2023-02-03T02:58:56;97551;;;6.81;52.29
2711;BME280;20721;47.402;8.550;2023-02-03T02:59:56;97552;;;6.84;52.34
2711;BME280;20721;47.402;8.550;2023-02-03T03:00:56;97559;;;6.83;52.18
2711;BME280;20721;47.402;8.550;2023-02-03T03:01:56;97565;;;6.81;52.08
2711;BME280;20721;47.402;8.550;2023-02-03T03:02:56;97561;;;6.67;52.34
2711;BME280;20721;47.402;8.550;2023-02-03T03:03:56;97576;;;6.70;52.50
2711;BME280;20721;47.402;8.550;2023-02-03T03:04:56;97568;;;6.72;52.29
2711;BME280;20721;47.402;8.550;2023-02-03T03:05:59;97573;;;6.77;52.32
2711;BME280;20721;47.402;8.550;2023-02-03T03:06:57;97574;;;6.80;52.30
2711;BME280;20721;47.402;8.550;2023-02-03T03:08:57;97579;;;6.83;52.13
2711;BME280;20721;47.402;8.550;2023-02-03T03:09:57;97578;;;6.88;52.15
2711;BME280;20721;47.402;8.550;2023-02-03T03:10:56;97576;;;6.90;51.76
2711;BME280;20721;47.402;8.550;2023-02-03T03:11:57;97573;;;6.91;51.65
2711;BME280;20721;47.402;8.550;2023-02-03T03:12:58;97571;;;6.92;51.74
2711;BME280;20721;47.402;8.550;2023-02-03T03:13:56;97562;;;6.94;51.70
2711;BME280;20721;47.402;8.550;2023-02-03T03:14:59;97560;;;6.95;51.72
2711;BME280;20721;47.402;8.550;2023-02-03T03:15:56;97564;;;6.97;51.72
2711;BME280;20721;47.402;8.550;2023-02-03T03:16:58;97560;;;7.00;51.65
2711;BME280;20721;47.402;8.550;2023-02-03T03:17:59;97567;;;7.03;51.63
2711;BME280;20721;47.402;8.550;2023-02-03T03:18:58;97572;;;7.05;51.59
2711;BME280;20721;47.402;8.550;2023-02-03T03:19:56;97579;;;7.10;51.44
2711;BME280;20721;47.402;8.550;2023-02-03T03:20:56;97576;;;7.15;51.38
2711;BME280;20721;47.402;8.550;2023-02-03T03:21:57;97575;;;7.19;51.26
2711;BME280;20721;47.402;8.550;2023-02-03T03:22:58;97575;;;7.16;51.27
2711;BME280;20721;47.402;8.550;2023-02-03T03:23:56;97571;;;7.14;51.27
2711;BME280;20721;47.402;8.550;2023-02-03T03:24:59;97573;;;7.16;51.39
2711;BME280;20721;47.402;8.550;2023-02-03T03:25:59;97573;;;7.20;51.42
2711;BME280;20721;47.402;8.550;2023-02-03T03:26:58;97569;;;7.27;51.26
2711;BME280;20721;47.402;8.550;2023-02-03T03:27:58;97572;;;7.33;51.09
2711;BME280;20721;47.402;8.550;2023-02-03T03:30:00;97579;;;7.43;50.90
2711;BME280;20721;47.402;8.550;2023-02-03T03:30:56;97582;;;7.49;50.78
2711;BME280;20721;47.402;8.550;2023-02-03T03:31:56;97582;;;7.51;50.60
2711;BME280;20721;47.402;8.550;2023-02-03T03:32:57;97580;;;7.47;50.48
2711;BME280;20721;47.402;8.550;2023-02-03T03:33:56;97578;;;7.39;50.63
2711;BME280;20721;47.402;8.550;2023-02-03T03:35:59;97569;;;7.40;50.78
2711;BME280;20721;47.402;8.550;2023-02-03T03:36:57;97568;;;7.43;50.76
2711;BME280;20721;47.402;8.550;2023-02-03T03:37:58;97563;;;7.48;50.81
2711;BME280;20721;47.402;8.550;2023-02-03T03:39:56;97557;;;7.53;50.38
2711;BME280;20721;47.402;8.550;2023-02-03T03:40:59;97555;;;7.56;50.33
2711;BME280;20721;47.402;8.550;2023-02-03T03:42:00;97555;;;7.58;50.30
2711;BME280;20721;47.402;8.550;2023-02-03T03:43:58;97549;;;7.56;50.14
2711;BME280;20721;47.402;8.550;2023-02-03T03:44:57;97548;;;7.54;50.24
2711;BME280;20721;47.402;8.550;2023-02-03T03:45:57;97547;;;7.56;50.37
2711;BME280;20721;47.402;8.550;2023-02-03T03:48:57;97540;;;7.59;50.26
2711;BME280;20721;47.402;8.550;2023-02-03T03:50:59;97533;;;7.57;50.19
2711;BME280;20721;47.402;8.550;2023-02-03T03:52:56;97542;;;7.59;50.04
2711;BME280;20721;47.402;8.550;2023-02-03T03:53:57;97553;;;7.57;50.22
2711;BME280;20721;47.402;8.550;2023-02-03T03:57:01;97562;;;7.58;50.14
2711;BME280;20721;47.402;8.550;2023-02-03T03:58:12;97567;;;7.60;50.16
2711;BME280;20721;47.402;8.550;2023-02-03T03:58:56;97572;;;7.65;50.12
2711;BME280;20721;47.402;8.550;2023-02-03T03:59:56;97566;;;7.69;50.09
2711;BME280;20721;47.402;8.550;2023-02-03T04:00:59;97563;;;7.71;49.99
2711;BME280;20721;47.402;8.550;2023-02-03T04:03:57;97553;;;7.70;49.87
2711;BME280;20721;47.402;8.550;2023-02-03T04:04:56;97553;;;7.67;49.95
2711;BME280;20721;47.402;8.550;2023-02-03T04:06:56;97546;;;7.65;49.99
2711;BME280;20721;47.402;8.550;2023-02-03T04:08:56;97543;;;7.67;49.88
2711;BME280;20721;47.402;8.550;2023-02-03T04:09:56;97543;;;7.66;49.96
2711;BME280;20721;47.402;8.550;2023-02-03T04:10:56;97540;;;7.67;49.77
2711;BME280;20721;47.402;8.550;2023-02-03T04:12:04;97543;;;7.65;49.84
2711;BME280;20721;47.402;8.550;2023-02-03T04:12:56;97549;;;7.66;49.98
2711;BME280;20721;47.402;8.550;2023-02-03T04:13:56;97544;;;7.71;49.92
2711;BME280;20721;47.402;8.550;2023-02-03T04:14:56;97542;;;7.73;49.89
2711;BME280;20721;47.402;8.550;2023-02-03T04:15:56;97541;;;7.76;49.88
2711;BME280;20721;47.402;8.550;2023-02-03T04:16:56;97535;;;7.78;49.71
2711;BME280;20721;47.402;8.550;2023-02-03T04:17:56;97532;;;7.77;49.72
2711;BME280;20721;47.402;8.550;2023-02-03T04:19:56;97531;;;7.75;49.62
2711;BME280;20721;47.402;8.550;2023-02-03T04:21:56;97521;;;7.73;49.77
2711;BME280;20721;47.402;8.550;2023-02-03T04:22:56;97514;;;7.68;49.59
2711;BME280;20721;47.402;8.550;2023-02-03T04:23:56;97513;;;7.67;49.72
2711;BME280;20721;47.402;8.550;2023-02-03T04:24:57;97507;;;7.62;49.83
2711;BME280;20721;47.402;8.550;2023-02-03T04:25:56;97504;;;7.61;49.89
2711;BME280;20721;47.402;8.550;2023-02-03T04:27:56;97507;;;7.63;49.99
2711;BME280;20721;47.402;8.550;2023-02-03T04:28:56;97503;;;7.64;49.89
2711;BME280;20721;47.402;8.550;2023-02-03T04:29:56;97503;;;7.65;49.84
2711;BME280;20721;47.402;8.550;2023-02-03T04:30:58;97505;;;7.68;49.87
2711;BME280;20721;47.402;8.550;2023-02-03T04:31:56;97505;;;7.71;49.89
2711;BME280;20721;47.402;8.550;2023-02-03T04:32:56;97502;;;7.72;49.80
2711;BME280;20721;47.402;8.550;2023-02-03T04:37:56;97534;;;7.74;49.85
2711;BME280;20721;47.402;8.550;2023-02-03T04:38:56;97532;;;7.73;49.97
2711;BME280;20721;47.402;8.550;2023-02-03T04:41:56;97532;;;7.74;49.98
2711;BME280;20721;47.402;8.550;2023-02-03T04:42:56;97530;;;7.75;49.98
2711;BME280;20721;47.402;8.550;2023-02-03T04:44:56;97527;;;7.76;49.99
2711;BME280;20721;47.402;8.550;2023-02-03T04:45:58;97524;;;7.74;49.96
2711;BME280;20721;47.402;8.550;2023-02-03T04:46:56;97517;;;7.69;49.94
2711;BME280;20721;47.402;8.550;2023-02-03T04:47:56;97512;;;7.65;49.97
2711;BME280;20721;47.402;8.550;2023-02-03T04:48:56;97513;;;7.56;50.08
2711;BME280;20721;47.402;8.550;2023-02-03T04:49:56;97512;;;7.52;50.15
2711;BME280;20721;47.402;8.550;2023-02-03T04:51:00;97514;;;7.51;50.23
2711;BME280;20721;47.402;8.550;2023-02-03T04:51:56;97516;;;7.53;50.26
2711;BME280;20721;47.402;8.550;2023-02-03T04:52:59;97517;;;7.55;50.31
2711;BME280;20721;47.402;8.550;2023-02-03T04:53:56;97518;;;7.57;50.24
2711;BME280;20721;47.402;8.550;2023-02-03T04:54:56;97519;;;7.59;50.16
2711;BME280;20721;47.402;8.550;2023-02-03T04:55:56;97522;;;7.62;50.10
2711;BME280;20721;47.402;8.550;2023-02-03T04:56:56;97522;;;7.65;49.98
2711;BME280;20721;47.402;8.550;2023-02-03T04:57:56;97527;;;7.66;49.95
2711;BME280;20721;47.402;8.550;2023-02-03T04:58:56;97526;;;7.62;49.89
2711;BME280;20721;47.402;8.550;2023-02-03T04:59:56;97532;;;7.61;50.06
2711;BME280;20721;47.402;8.550;2023-02-03T05:01:56;97546;;;7.62;50.00
2711;BME280;20721;47.402;8.550;2023-02-03T05:03:56;97563;;;7.63;49.96
2711;BME280;20721;47.402;8.550;2023-02-03T05:05:56;97567;;;7.66;50.17
2711;BME280;20721;47.402;8.550;2023-02-03T05:06:56;97562;;;7.69;50.04
2711;BME280;20721;47.402;8.550;2023-02-03T05:07:56;97561;;;7.72;49.95
2711;BME280;20721;47.402;8.550;2023-02-03T05:08:56;97558;;;7.75;49.88
2711;BME280;20721;47.402;8.550;2023-02-03T05:10:56;97553;;;7.73;49.87
2711;BME280;20721;47.402;8.550;2023-02-03T05:12:56;97558;;;7.74;49.85
2711;BME280;20721;47.402;8.550;2023-02-03T05:13:56;97559;;;7.75;49.84
2711;BME280;20721;47.402;8.550;2023-02-03T05:14:56;97562;;;7.76;49.81
2711;BME280;20721;47.402;8.550;2023-02-03T05:15:56;97563;;;7.75;49.75
2711;BME280;20721;47.402;8.550;2023-02-03T05:16:56;97568;;;7.76;49.83
2711;BME280;20721;47.402;8.550;2023-02-03T05:18:56;97570;;;7.77;49.81
2711;BME280;20721;47.402;8.550;2023-02-03T05:19:56;97571;;;7.76;49.83
2711;BME280;20721;47.402;8.550;2023-02-03T05:20:56;97570;;;7.74;49.72
2711;BME280;20721;47.402;8.550;2023-02-03T05:21:56;97571;;;7.72;49.78
2711;BME280;20721;47.402;8.550;2023-02-03T05:22:57;97573;;;7.70;49.76
2711;BME280;20721;47.402;8.550;2023-02-03T05:23:56;97577;;;7.67;49.87
2711;BME280;20721;47.402;8.550;2023-02-03T05:25:56;97583;;;7.68;49.90
2711;BME280;20721;47.402;8.550;2023-02-03T05:26:56;97585;;;7.69;49.93
2711;BME280;20721;47.402;8.550;2023-02-03T05:29:56;97593;;;7.68;49.86
2711;BME280;20721;47.402;8.550;2023-02-03T05:30:57;97588;;;7.65;49.89
2711;BME280;20721;47.402;8.550;2023-02-03T05:31:56;97585;;;7.64;49.85
2711;BME280;20721;47.402;8.550;2023-02-03T05:32:56;97582;;;7.59;49.95
2711;BME280;20721;47.402;8.550;2023-02-03T05:33:56;97581;;;7.58;50.06
2711;BME280;20721;47.402;8.550;2023-02-03T05:34:56;97573;;;7.57;50.07
2711;BME280;20721;47.402;8.550;2023-02-03T05:35:56;97571;;;7.49;50.17
2711;BME280;20721;47.402;8.550;2023-02-03T05:37:56;97575;;;7.47;50.33
2711;BME280;20721;47.402;8.550;2023-02-03T05:38:56;97572;;;7.45;50.35
2711;BME280;20721;47.402;8.550;2023-02-03T05:40:06;97575;;;7.46;50.32
2711;BME280;20721;47.402;8.550;2023-02-03T05:41:06;97568;;;7.45;50.28
2711;BME280;20721;47.402;8.550;2023-02-03T05:41:58;97565;;;7.40;50.35
2711;BME280;20721;47.402;8.550;2023-02-03T05:42:56;97569;;;7.39;50.45
2711;BME280;20721;47.402;8.550;2023-02-03T05:43:56;97568;;;7.36;50.54
2711;BME280;20721;47.402;8.550;2023-02-03T05:44:56;97567;;;7.38;50.51
2711;BME280;20721;47.402;8.550;2023-02-03T05:46:00;97576;;;7.39;50.51
2711;BME280;20721;47.402;8.550;2023-02-03T05:46:57;97580;;;7.37;50.54
2711;BME280;20721;47.402;8.550;2023-02-03T05:47:56;97583;;;7.41;50.52
2711;BME280;20721;47.402;8.550;2023-02-03T05:48:56;97581;;;7.42;50.38
2711;BME280;20721;47.402;8.550;2023-02-03T05:50:56;97592;;;7.43;50.40
2711;BME280;20721;47.402;8.550;2023-02-03T05:52:56;97602;;;7.44;50.36
2711;BME280;20721;47.402;8.550;2023-02-03T05:53:56;97612;;;7.46;50.42
2711;BME280;20721;47.402;8.550;2023-02-03T05:54:56;97610;;;7.45;50.35
2711;BME280;20721;47.402;8.550;2023-02-03T05:55:56;97612;;;7.48;50.36
2711;BME280;20721;47.402;8.550;2023-02-03T05:56:56;97613;;;7.44;50.33
2711;BME280;20721;47.402;8.550;2023-02-03T05:57:56;97616;;;7.37;50.44
2711;BME280;20721;47.402;8.550;2023-02-03T05:59:56;97620;;;7.36;50.44
2711;BME280;20721;47.402;8.550;2023-02-03T06:00:56;97622;;;7.38;50.54
2711;BME280;20721;47.402;8.550;2023-02-03T06:01:56;97622;;;7.41;50.50
2711;BME280;20721;47.402;8.550;2023-02-03T06:02:57;97619;;;7.42;50.52
2711;BME280;20721;47.402;8.550;2023-02-03T06:03:56;97618;;;7.44;50.54
2711;BME280;20721;47.402;8.550;2023-02-03T06:04:56;97606;;;7.48;50.55
2711;BME280;20721;47.402;8.550;2023-02-03T06:05:57;97604;;;7.50;50.52
2711;BME280;20721;47.402;8.550;2023-02-03T06:06:56;97603;;;7.53;50.40
2711;BME280;20721;47.402;8.550;2023-02-03T06:08:56;97595;;;7.54;50.37
2711;BME280;20721;47.402;8.550;2023-02-03T06:09:56;97594;;;7.53;50.41
2711;BME280;20721;47.402;8.550;2023-02-03T06:11:56;97584;;;7.48;50.31
2711;BME280;20721;47.402;8.550;2023-02-03T06:12:56;97580;;;7.40;50.47
2711;BME280;20721;47.402;8.550;2023-02-03T06:13:57;97577;;;7.33;50.53
2711;BME280;20721;47.402;8.550;2023-02-03T06:14:56;97571;;;7.21;50.61
2711;BME280;20721;47.402;8.550;2023-02-03T06:15:56;97563;;;7.12;50.94
2711;BME280;20721;47.402;8.550;2023-02-03T06:16:56;97554;;;7.09;51.10
2711;BME280;20721;47.402;8.550;2023-02-03T06:17:56;97547;;;7.11;51.13
2711;BME280;20721;47.402;8.550;2023-02-03T06:18:58;97550;;;7.14;51.03
2711;BME280;20721;47.402;8.550;2023-02-03T06:19:56;97547;;;7.19;51.13
2711;BME280;20721;47.402;8.550;2023-02-03T06:20:56;97548;;;7.25;50.98
2711;BME280;20721;47.402;8.550;2023-02-03T06:21:56;97549;;;7.23;50.86
2711;BME280;20721;47.402;8.550;2023-02-03T06:22:56;97544;;;7.26;50.85
2711;BME280;20721;47.402;8.550;2023-02-03T06:23:57;97546;;;7.29;50.88
2711;BME280;20721;47.402;8.550;2023-02-03T06:24:56;97546;;;7.36;50.78
2711;BME280;20721;47.402;8.550;2023-02-03T06:25:58;97547;;;7.40;50.69
2711;BME280;20721;47.402;8.550;2023-02-03T06:26:56;97539;;;7.44;50.61
2711;BME280;20721;47.402;8.550;2023-02-03T06:27:57;97538;;;7.47;50.46
2711;BME280;20721;47.402;8.550;2023-02-03T06:28:56;97530;;;7.45;50.37
2711;BME280;20721;47.402;8.550;2023-02-03T06:29:56;97532;;;7.47;50.38
2711;BME280;20721;47.402;8.550;2023-02-03T06:30:56;97537;;;7.50;50.40
2711;BME280;20721;47.402;8.550;2023-02-03T06:31:56;97533;;;7.54;50.28
2711;BME280;20721;47.402;8.550;2023-02-03T06:32:56;97542;;;7.52;50.26
2711;BME280;20721;47.402;8.550;2023-02-03T06:33:58;97545;;;7.51;50.20
2711;BME280;20721;47.402;8.550;2023-02-03T06:34:56;97552;;;7.49;50.16
2711;BME280;20721;47.402;8.550;2023-02-03T06:35:56;97552;;;7.53;50.23
2711;BME280;20721;47.402;8.550;2023-02-03T06:36:56;97556;;;7.57;50.27
2711;BME280;20721;47.402;8.550;2023-02-03T06:37:56;97562;;;7.62;50.24
2711;BME280;20721;47.402;8.550;2023-02-03T06:38:58;97563;;;7.65;50.20
2711;BME280;20721;47.402;8.550;2023-02-03T06:39:56;97565;;;7.70;50.12
2711;BME280;20721;47.402;8.550;2023-02-03T06:40:56;97567;;;7.75;50.14
2711;BME280;20721;47.402;8.550;2023-02-03T06:41:56;97573;;;7.78;50.12
2711;BME280;20721;47.402;8.550;2023-02-03T06:42:56;97573;;;7.83;50.05
2711;BME280;20721;47.402;8.550;2023-02-03T06:43:56;97579;;;7.87;49.91
2711;BME280;20721;47.402;8.550;2023-02-03T06:44:56;97581;;;7.88;49.88
2711;BME280;20721;47.402;8.550;2023-02-03T06:45:57;97589;;;7.90;49.76
2711;BME280;20721;47.402;8.550;2023-02-03T06:46:57;97591;;;7.91;49.69
2711;BME280;20721;47.402;8.550;2023-02-03T06:47:56;97596;;;7.93;49.68
2711;BME280;20721;47.402;8.550;2023-02-03T06:48:56;97602;;;7.94;49.71
2711;BME280;20721;47.402;8.550;2023-02-03T06:49:56;97604;;;7.92;49.58
2711;BME280;20721;47.402;8.550;2023-02-03T06:50:56;97608;;;7.90;49.51